Time;durP1;ratioP1;P1;durP2;ratioP2;P2;SDS_P1;SDS_P2;PMS_P1;PMS_P2;Temp;Humidity;BMP_temperature;BMP_pressure;BME280_temperature;BME280_humidity;BME280_pressure;Samples;Min_cycle;Max_cycle;Signal;HPM_P1;HPM_P2
2021/09/28 00:01:43;;;;;;;9.98;8.07;;;17.20;76.70;;;;;;5044636;28;20122;-66
2021/09/28 00:04:08;;;;;;;10.10;8.55;;;17.20;76.60;;;;;;5043910;28;20029;-66
2021/09/28 00:06:34;;;;;;;9.23;8.05;;;17.20;76.60;;;;;;5044041;28;20037;-66
2021/09/28 00:09:00;;;;;;;10.77;8.57;;;17.10;76.50;;;;;;5043463;28;20123;-67
2021/09/28 00:11:25;;;;;;;9.43;8.43;;;17.10;76.50;;;;;;5045233;28;20459;-66
2021/09/28 00:13:51;;;;;;;10.88;8.40;;;17.10;76.60;;;;;;5054518;28;20048;-66
2021/09/28 00:16:17;;;;;;;9.60;8.50;;;17.00;76.60;;;;;;5055668;28;20037;-66
2021/09/28 00:18:42;;;;;;;11.57;9.00;;;17.00;76.80;;;;;;5053536;28;20126;-66
2021/09/28 00:21:08;;;;;;;9.98;8.45;;;17.00;77.00;;;;;;5045324;28;20132;-66
2021/09/28 00:23:34;;;;;;;9.75;8.52;;;16.90;77.20;;;;;;5043519;28;20028;-66
2021/09/28 00:25:59;;;;;;;9.30;8.32;;;16.90;77.20;;;;;;5047095;28;20492;-66
2021/09/28 00:28:28;;;;;;;10.20;8.52;;;16.90;77.30;;;;;;5044796;28;20025;-67
2021/09/28 00:30:55;;;;;;;10.00;8.65;;;16.80;77.30;;;;;;5044139;28;20097;-66
2021/09/28 00:33:21;;;;;;;9.98;8.43;;;16.80;77.50;;;;;;5048953;28;20045;-66
2021/09/28 00:35:47;;;;;;;10.32;9.05;;;16.80;77.50;;;;;;5051742;28;20581;-67
2021/09/28 00:38:12;;;;;;;10.23;8.63;;;16.80;77.70;;;;;;5052169;28;20036;-66
2021/09/28 00:40:38;;;;;;;9.55;8.25;;;16.80;77.60;;;;;;5051383;28;20033;-66
2021/09/28 00:43:03;;;;;;;10.52;8.98;;;16.80;77.70;;;;;;5049213;28;20526;-66
2021/09/28 00:45:29;;;;;;;10.18;8.43;;;16.80;77.80;;;;;;5047774;28;20036;-66
2021/09/28 00:47:55;;;;;;;9.75;8.65;;;16.70;77.90;;;;;;5048847;28;20041;-66
2021/09/28 00:50:21;;;;;;;8.65;7.50;;;16.70;78.00;;;;;;5051138;28;20072;-66
2021/09/28 00:52:47;;;;;;;9.82;8.27;;;16.70;78.00;;;;;;5028164;28;20064;-66
2021/09/28 00:55:17;;;;;;;12.13;8.50;;;16.70;78.20;;;;;;5034050;28;20085;-66
2021/09/28 00:57:44;;;;;;;10.40;8.10;;;16.70;78.40;;;;;;5033183;28;20096;-67
2021/09/28 01:00:10;;;;;;;8.90;7.93;;;16.70;78.30;;;;;;5028075;28;20034;-66
2021/09/28 01:02:40;;;;;;;8.65;7.28;;;16.70;78.40;;;;;;5024451;28;20094;-66
2021/09/28 01:05:07;;;;;;;9.10;7.78;;;16.70;78.60;;;;;;5047838;28;20117;-66
2021/09/28 01:07:33;;;;;;;10.40;8.07;;;16.70;78.50;;;;;;5030640;28;20028;-66
2021/09/28 01:09:59;;;;;;;9.70;8.07;;;16.70;78.40;;;;;;5031668;28;20033;-66
2021/09/28 01:12:24;;;;;;;11.63;8.25;;;16.70;78.60;;;;;;5029309;28;20070;-67
2021/09/28 01:14:50;;;;;;;11.95;8.98;;;16.70;78.90;;;;;;5034570;28;20410;-66
2021/09/28 01:17:18;;;;;;;11.75;9.35;;;16.70;79.30;;;;;;5034858;28;20033;-66
2021/09/28 01:19:44;;;;;;;11.77;9.48;;;16.70;79.60;;;;;;5034071;28;20033;-66
2021/09/28 01:22:16;;;;;;;13.57;9.95;;;16.70;79.80;;;;;;5032243;28;20037;-67
2021/09/28 01:24:43;;;;;;;13.05;9.60;;;16.70;80.80;;;;;;5032133;28;20040;-66
2021/09/28 01:27:09;;;;;;;11.32;8.90;;;16.70;80.80;;;;;;5035633;28;20033;-66
2021/09/28 01:29:35;;;;;;;12.40;8.30;;;16.70;80.80;;;;;;5029174;28;20264;-65
2021/09/28 01:32:00;;;;;;;7.75;6.72;;;16.70;81.10;;;;;;5036289;28;20493;-66
2021/09/28 01:34:26;;;;;;;6.57;5.78;;;16.70;81.20;;;;;;5030680;28;20053;-66
2021/09/28 01:36:52;;;;;;;7.35;5.47;;;16.70;81.10;;;;;;5034995;28;20060;-66
2021/09/28 01:39:19;;;;;;;6.13;5.05;;;16.80;81.20;;;;;;5054087;28;20115;-65
2021/09/28 01:41:45;;;;;;;5.25;4.72;;;16.80;81.20;;;;;;5054042;28;20044;-65
2021/09/28 01:44:16;;;;;;;6.60;4.10;;;16.80;81.20;;;;;;5050407;28;20381;-66
2021/09/28 01:46:44;;;;;;;5.18;3.70;;;16.80;81.70;;;;;;5049787;28;21760;-65
2021/09/28 01:49:12;;;;;;;3.70;3.40;;;16.80;81.60;;;;;;5053065;28;20098;-66
2021/09/28 01:51:38;;;;;;;4.15;2.78;;;16.80;81.50;;;;;;5051081;28;20064;-66
2021/09/28 01:54:05;;;;;;;3.15;2.55;;;16.80;81.60;;;;;;5054158;28;20048;-66
2021/09/28 01:56:32;;;;;;;2.63;2.30;;;16.80;81.60;;;;;;5048567;28;20499;-66
2021/09/28 01:58:59;;;;;;;2.10;1.95;;;16.90;81.70;;;;;;5055043;28;20108;-66
2021/09/28 02:01:26;;;;;;;1.70;1.60;;;16.90;81.60;;;;;;5049558;28;20041;-66
2021/09/28 02:03:52;;;;;;;1.83;1.55;;;16.80;81.40;;;;;;5049724;28;20048;-66
2021/09/28 02:06:20;;;;;;;1.00;0.90;;;16.80;81.20;;;;;;5054038;28;20503;-66
2021/09/28 02:08:45;;;;;;;1.15;0.80;;;16.90;81.00;;;;;;5054995;28;20059;-66
2021/09/28 02:11:11;;;;;;;0.70;0.70;;;16.80;80.30;;;;;;5044776;28;20044;-66
2021/09/28 02:13:37;;;;;;;1.17;0.55;;;16.90;80.10;;;;;;5054063;28;20028;-66
2021/09/28 02:16:03;;;;;;;0.60;0.60;;;16.90;79.90;;;;;;5053365;28;20043;-66
2021/09/28 02:18:29;;;;;;;0.82;0.63;;;16.90;79.80;;;;;;5048381;28;20385;-66
2021/09/28 02:20:55;;;;;;;0.60;0.60;;;16.80;79.60;;;;;;5054051;28;20574;-66
2021/09/28 02:23:21;;;;;;;0.60;0.60;;;16.90;79.90;;;;;;5048705;28;20086;-66
2021/09/28 02:25:46;;;;;;;0.63;0.57;;;16.90;80.00;;;;;;5051990;28;20048;-67
2021/09/28 02:28:12;;;;;;;3.30;1.95;;;16.80;80.00;;;;;;5052799;28;20033;-66
2021/09/28 02:30:38;;;;;;;4.35;2.45;;;16.80;80.00;;;;;;5050100;28;20024;-65
2021/09/28 02:33:04;;;;;;;2.13;1.50;;;16.80;80.00;;;;;;5052992;28;20115;-66
2021/09/28 02:35:30;;;;;;;1.08;0.63;;;16.80;80.00;;;;;;5050569;28;20033;-66
2021/09/28 02:37:56;;;;;;;2.42;0.63;;;16.80;80.00;;;;;;5052405;28;20059;-66
2021/09/28 02:40:22;;;;;;;0.40;0.40;;;16.80;80.10;;;;;;5052784;28;20547;-65
2021/09/28 02:42:49;;;;;;;0.75;0.32;;;16.70;80.00;;;;;;5047091;28;20040;-66
2021/09/28 02:45:15;;;;;;;1.08;0.30;;;16.70;80.00;;;;;;5050530;28;20036;-66
2021/09/28 02:47:40;;;;;;;1.33;0.30;;;16.70;80.20;;;;;;5051576;28;20043;-65
2021/09/28 02:50:07;;;;;;;0.30;0.20;;;16.70;80.20;;;;;;5047417;28;20041;-66
2021/09/28 02:52:32;;;;;;;1.20;0.32;;;16.70;80.30;;;;;;5053516;28;20454;-66
2021/09/28 02:54:58;;;;;;;1.05;0.30;;;16.70;80.30;;;;;;5049650;28;20033;-65
2021/09/28 02:57:24;;;;;;;0.38;0.20;;;16.70;80.50;;;;;;5051757;28;20021;-66
2021/09/28 02:59:49;;;;;;;0.57;0.30;;;16.70;80.30;;;;;;5051051;28;20090;-65
2021/09/28 03:02:15;;;;;;;0.25;0.25;;;16.70;80.20;;;;;;5051532;28;20040;-65
2021/09/28 03:04:41;;;;;;;0.20;0.20;;;16.60;80.20;;;;;;5045107;28;20518;-66
2021/09/28 03:07:06;;;;;;;0.40;0.38;;;16.60;80.10;;;;;;5055519;28;20047;-66
2021/09/28 03:09:32;;;;;;;0.20;0.20;;;16.70;80.00;;;;;;5048985;28;20117;-66
2021/09/28 03:11:57;;;;;;;0.00;0.00;;;16.70;79.80;;;;;;5045147;28;20454;-65
2021/09/28 03:14:23;;;;;;;0.00;0.00;;;16.70;79.10;;;;;;5051759;28;20032;-65
2021/09/28 03:16:50;;;;;;;0.10;0.10;;;16.60;78.60;;;;;;5049799;28;20131;-66
2021/09/28 03:19:16;;;;;;;0.30;0.10;;;16.60;78.40;;;;;;5046328;28;20040;-66
2021/09/28 03:21:42;;;;;;;0.68;0.00;;;16.50;78.40;;;;;;5048908;28;20029;-66
2021/09/28 03:24:08;;;;;;;0.00;0.00;;;16.50;78.60;;;;;;5050835;28;20028;-66
2021/09/28 03:26:34;;;;;;;0.05;0.00;;;16.40;78.90;;;;;;5052210;28;20028;-66
2021/09/28 03:29:00;;;;;;;0.10;0.10;;;16.40;78.90;;;;;;5048239;28;20047;-65
2021/09/28 03:31:26;;;;;;;0.17;0.10;;;16.30;78.90;;;;;;5051900;28;20693;-66
2021/09/28 03:33:51;;;;;;;0.10;0.10;;;16.30;79.10;;;;;;5049477;28;20101;-66
2021/09/28 03:36:17;;;;;;;0.05;0.00;;;16.20;79.10;;;;;;5047142;28;20048;-65
2021/09/28 03:38:42;;;;;;;0.20;0.10;;;16.20;79.40;;;;;;5045435;28;20154;-66
2021/09/28 03:41:08;;;;;;;0.00;0.00;;;16.20;79.70;;;;;;5046555;28;20064;-67
2021/09/28 03:43:34;;;;;;;0.00;0.00;;;16.20;80.00;;;;;;5045478;28;20029;-66
2021/09/28 03:46:00;;;;;;;0.00;0.00;;;16.20;80.00;;;;;;5044703;28;20040;-66
2021/09/28 03:48:25;;;;;;;0.30;0.10;;;16.20;79.80;;;;;;5046827;28;20037;-66
2021/09/28 03:50:51;;;;;;;0.17;0.10;;;16.20;79.60;;;;;;5045735;28;20041;-64
2021/09/28 03:53:16;;;;;;;1.13;0.10;;;16.10;79.30;;;;;;5043919;28;20120;-66
2021/09/28 03:55:42;;;;;;;0.30;0.10;;;16.10;79.10;;;;;;5049682;28;20029;-66
2021/09/28 03:58:08;;;;;;;0.10;0.10;;;16.10;78.90;;;;;;5044853;28;20504;-66
2021/09/28 04:00:36;;;;;;;0.50;0.10;;;16.10;78.90;;;;;;5044221;28;20511;-66
2021/09/28 04:03:06;;;;;;;0.10;0.10;;;16.00;78.80;;;;;;5049337;28;20033;-65
2021/09/28 04:05:33;;;;;;;0.45;0.10;;;16.00;78.90;;;;;;5045567;28;20033;-65
2021/09/28 04:07:58;;;;;;;0.17;0.10;;;15.90;78.70;;;;;;5046524;28;20037;-65
2021/09/28 04:10:24;;;;;;;0.40;0.10;;;15.90;78.70;;;;;;5048147;28;20067;-65
2021/09/28 04:12:50;;;;;;;0.17;0.10;;;15.90;78.80;;;;;;5051501;28;20033;-66
2021/09/28 04:15:19;;;;;;;0.08;0.08;;;15.90;78.80;;;;;;5048857;28;20040;-65
2021/09/28 04:17:45;;;;;;;0.75;0.10;;;15.90;78.90;;;;;;5051674;28;20056;-66
2021/09/28 04:20:11;;;;;;;0.20;0.10;;;15.80;79.00;;;;;;5047828;28;20472;-66
2021/09/28 04:22:36;;;;;;;0.30;0.30;;;15.80;78.90;;;;;;5052072;28;20043;-66
2021/09/28 04:25:04;;;;;;;0.30;0.20;;;15.80;79.10;;;;;;5066810;28;20119;-66
2021/09/28 04:27:30;;;;;;;0.57;0.32;;;15.70;78.90;;;;;;5051674;28;20064;-65
2021/09/28 04:29:56;;;;;;;0.52;0.40;;;15.70;78.20;;;;;;5052432;28;20029;-65
2021/09/28 04:32:21;;;;;;;1.95;0.50;;;15.60;78.10;;;;;;5046413;28;20764;-65
2021/09/28 04:34:47;;;;;;;1.48;0.63;;;15.50;78.10;;;;;;5047977;28;20516;-66
2021/09/28 04:37:13;;;;;;;0.95;0.52;;;15.40;78.00;;;;;;5040858;28;20098;-64
2021/09/28 04:39:38;;;;;;;2.78;0.80;;;15.40;78.00;;;;;;5054697;28;20087;-66
2021/09/28 04:42:04;;;;;;;2.65;0.70;;;15.30;78.00;;;;;;5051266;28;20118;-66
2021/09/28 04:44:30;;;;;;;1.83;0.70;;;15.30;78.10;;;;;;5069431;28;20186;-66
2021/09/28 04:46:55;;;;;;;1.67;0.70;;;15.20;78.00;;;;;;5049428;28;20561;-65
2021/09/28 04:49:21;;;;;;;2.17;0.70;;;15.20;78.10;;;;;;5052688;28;20040;-66
2021/09/28 04:51:47;;;;;;;1.42;0.60;;;15.10;78.00;;;;;;5055537;28;20455;-66
2021/09/28 04:54:12;;;;;;;2.00;0.70;;;15.10;78.10;;;;;;5052155;28;20120;-66
2021/09/28 04:56:38;;;;;;;2.20;0.70;;;15.10;79.00;;;;;;5055772;28;20030;-66
2021/09/28 04:59:04;;;;;;;1.27;0.65;;;15.00;78.30;;;;;;5055337;28;20032;-64
2021/09/28 05:01:30;;;;;;;2.08;0.70;;;15.00;78.60;;;;;;5050986;28;20405;-66
2021/09/28 05:03:55;;;;;;;2.30;0.90;;;15.00;78.80;;;;;;5051357;28;20037;-66
2021/09/28 05:06:21;;;;;;;5.43;0.98;;;15.00;78.70;;;;;;5052701;28;20045;-66
2021/09/28 05:08:47;;;;;;;2.00;0.55;;;15.00;78.50;;;;;;5055424;28;20177;-66
2021/09/28 05:11:13;;;;;;;3.30;0.88;;;15.00;78.40;;;;;;5052295;28;20402;-66
2021/09/28 05:13:40;;;;;;;3.33;0.80;;;15.00;78.40;;;;;;5053339;28;20102;-66
2021/09/28 05:16:06;;;;;;;3.28;1.00;;;15.00;78.70;;;;;;5054381;28;20132;-66
2021/09/28 05:18:32;;;;;;;3.08;0.68;;;15.00;78.60;;;;;;5052909;28;20040;-65
2021/09/28 05:20:58;;;;;;;4.65;0.93;;;15.00;78.50;;;;;;5059285;28;20039;-66
2021/09/28 05:23:23;;;;;;;1.92;0.70;;;15.00;78.30;;;;;;5056036;28;20510;-66
2021/09/28 05:25:49;;;;;;;2.13;0.90;;;15.00;78.00;;;;;;5055429;28;20028;-66
2021/09/28 05:28:15;;;;;;;1.35;0.73;;;15.00;77.90;;;;;;5056199;28;20534;-67
2021/09/28 05:30:44;;;;;;;2.50;0.90;;;14.90;78.20;;;;;;5057857;28;20037;-66
2021/09/28 05:33:10;;;;;;;2.95;0.90;;;14.90;78.40;;;;;;5054289;28;20401;-66
2021/09/28 05:35:36;;;;;;;1.88;0.95;;;14.90;78.60;;;;;;5054781;28;20032;-66
2021/09/28 05:38:02;;;;;;;2.40;1.20;;;14.90;78.90;;;;;;5058798;28;20026;-66
2021/09/28 05:40:27;;;;;;;2.55;0.90;;;14.90;79.10;;;;;;5054787;28;20076;-66
2021/09/28 05:42:53;;;;;;;3.25;1.02;;;14.90;79.10;;;;;;5057356;28;20032;-66
2021/09/28 05:45:19;;;;;;;2.15;1.08;;;14.90;79.10;;;;;;5058449;28;20040;-66
2021/09/28 05:47:46;;;;;;;2.60;1.05;;;15.00;78.90;;;;;;5056043;28;20098;-66
2021/09/28 05:50:11;;;;;;;2.88;1.20;;;15.00;79.10;;;;;;5054969;28;20041;-66
2021/09/28 05:52:37;;;;;;;1.98;1.20;;;15.10;79.10;;;;;;5057043;28;20081;-67
2021/09/28 05:55:03;;;;;;;2.17;1.33;;;15.10;79.00;;;;;;5054386;28;20029;-67
2021/09/28 05:57:29;;;;;;;1.60;0.90;;;15.20;78.90;;;;;;5059176;28;20037;-66
2021/09/28 05:59:54;;;;;;;3.40;0.90;;;15.20;78.70;;;;;;5058320;28;20037;-66
2021/09/28 06:02:20;;;;;;;2.58;1.30;;;15.30;78.60;;;;;;5057654;28;20393;-65
2021/09/28 06:04:46;;;;;;;9.05;6.57;;;15.30;78.30;;;;;;5059079;28;20565;-66
2021/09/28 06:07:14;;;;;;;4.90;1.98;;;15.30;78.10;;;;;;5059002;28;20029;-66
2021/09/28 06:09:41;;;;;;;4.05;1.23;;;15.40;77.90;;;;;;5059904;28;20024;-66
2021/09/28 06:12:09;;;;;;;3.05;1.10;;;15.40;77.70;;;;;;5048353;28;20045;-66
2021/09/28 06:14:36;;;;;;;3.05;1.23;;;15.40;77.70;;;;;;5054884;28;20029;-66
2021/09/28 06:17:02;;;;;;;3.28;1.10;;;15.40;77.70;;;;;;5052533;28;20040;-66
2021/09/28 06:19:29;;;;;;;2.05;1.00;;;15.50;77.70;;;;;;5057090;28;20039;-66
2021/09/28 06:21:56;;;;;;;3.03;1.15;;;15.50;77.10;;;;;;5055955;28;20592;-66
2021/09/28 06:24:22;;;;;;;3.95;2.60;;;15.50;77.00;;;;;;5057481;28;20123;-66
2021/09/28 06:26:48;;;;;;;2.75;1.25;;;15.50;77.20;;;;;;5037963;28;20108;-67
2021/09/28 06:29:14;;;;;;;2.25;1.08;;;15.50;77.10;;;;;;5038504;28;20025;-67
2021/09/28 06:31:42;;;;;;;1.27;0.73;;;15.60;77.20;;;;;;5037648;28;20037;-65
2021/09/28 06:34:08;;;;;;;3.42;1.00;;;15.60;77.00;;;;;;5037720;28;20037;-66
2021/09/28 06:36:33;;;;;;;2.72;0.93;;;15.60;76.50;;;;;;5037318;28;20226;-66
2021/09/28 06:38:59;;;;;;;2.08;0.70;;;15.60;76.00;;;;;;5038667;28;20021;-66
2021/09/28 06:41:27;;;;;;;1.88;0.70;;;15.60;75.30;;;;;;5038613;28;20117;-66
2021/09/28 06:43:53;;;;;;;2.75;1.00;;;15.60;75.30;;;;;;5037863;28;20032;-66
2021/09/28 06:46:19;;;;;;;2.88;0.85;;;15.60;75.30;;;;;;5039009;28;20401;-68
2021/09/28 06:48:45;;;;;;;2.50;1.00;;;15.50;75.30;;;;;;5037246;28;20037;-66
2021/09/28 06:51:11;;;;;;;3.25;1.10;;;15.60;75.40;;;;;;5038335;28;20086;-67
2021/09/28 06:53:36;;;;;;;5.88;1.27;;;15.60;75.70;;;;;;5037236;28;20602;-63
2021/09/28 06:56:02;;;;;;;2.42;1.35;;;15.60;75.70;;;;;;5037449;28;20416;-68
2021/09/28 06:58:28;;;;;;;3.03;1.30;;;15.60;75.20;;;;;;5037318;28;20561;-66
2021/09/28 07:00:54;;;;;;;1.98;1.20;;;15.60;75.10;;;;;;5039137;28;20563;-67
2021/09/28 07:03:20;;;;;;;4.63;1.13;;;15.60;75.10;;;;;;5030915;28;20040;-67
2021/09/28 07:05:46;;;;;;;2.70;1.38;;;15.60;75.30;;;;;;5035600;28;20048;-66
2021/09/28 07:08:12;;;;;;;2.47;1.23;;;15.60;75.30;;;;;;5036474;28;20133;-66
2021/09/28 07:10:37;;;;;;;2.40;1.10;;;15.60;75.30;;;;;;5035751;28;20112;-66
2021/09/28 07:13:03;;;;;;;3.75;1.13;;;15.70;74.80;;;;;;5037110;28;20037;-66
2021/09/28 07:15:29;;;;;;;2.78;1.10;;;15.70;74.50;;;;;;5037349;28;20102;-66
2021/09/28 07:17:55;;;;;;;2.90;1.23;;;15.60;73.80;;;;;;5038273;28;20144;-66
2021/09/28 07:20:21;;;;;;;2.35;1.27;;;15.60;73.90;;;;;;5037755;28;20037;-66
2021/09/28 07:22:47;;;;;;;2.60;1.42;;;15.60;74.00;;;;;;5033815;28;20045;-66
2021/09/28 07:25:13;;;;;;;3.65;1.50;;;15.50;73.90;;;;;;5034117;28;20041;-66
2021/09/28 07:27:39;;;;;;;3.40;1.58;;;15.50;74.40;;;;;;5034508;28;20041;-66
2021/09/28 07:30:06;;;;;;;1.75;1.30;;;15.50;74.40;;;;;;5035729;28;20032;-66
2021/09/28 07:32:32;;;;;;;5.28;1.73;;;15.50;74.30;;;;;;5033168;28;20030;-66
2021/09/28 07:34:58;;;;;;;3.63;1.23;;;15.50;74.30;;;;;;5034893;28;20036;-68
2021/09/28 07:37:27;;;;;;;3.75;1.30;;;15.40;74.00;;;;;;5034954;28;20038;-66
2021/09/28 07:39:54;;;;;;;3.50;1.27;;;15.40;73.90;;;;;;5032708;28;20036;-65
2021/09/28 07:42:21;;;;;;;3.47;1.45;;;15.40;74.00;;;;;;5032614;28;20091;-66
2021/09/28 07:44:47;;;;;;;3.13;1.35;;;15.40;74.10;;;;;;5035591;28;20119;-67
2021/09/28 07:47:13;;;;;;;2.45;1.50;;;15.40;74.60;;;;;;5034769;28;20155;-66
2021/09/28 07:49:40;;;;;;;2.40;1.40;;;15.50;74.40;;;;;;5033623;28;20107;-67
2021/09/28 07:52:06;;;;;;;3.60;1.23;;;15.50;74.20;;;;;;5032086;28;20576;-66
2021/09/28 07:54:34;;;;;;;4.78;1.40;;;15.50;73.90;;;;;;5034414;28;20033;-66
2021/09/28 07:57:03;;;;;;;3.63;1.45;;;15.50;74.00;;;;;;5036407;28;20029;-66
2021/09/28 07:59:29;;;;;;;3.45;1.20;;;15.60;74.00;;;;;;5033499;28;20083;-66
2021/09/28 08:01:55;;;;;;;3.38;0.88;;;15.60;73.20;;;;;;5032507;28;20033;-66
2021/09/28 08:04:20;;;;;;;2.83;0.93;;;15.70;72.60;;;;;;5032419;28;20401;-66
2021/09/28 08:06:47;;;;;;;2.17;0.80;;;15.60;72.30;;;;;;5032525;28;20040;-66
2021/09/28 08:09:13;;;;;;;2.83;1.00;;;15.60;72.60;;;;;;5029839;28;20408;-67
2021/09/28 08:11:39;;;;;;;5.65;1.30;;;15.70;72.90;;;;;;5031959;28;20115;-66
2021/09/28 08:14:05;;;;;;;3.25;1.10;;;15.70;73.20;;;;;;5032164;28;20801;-66
2021/09/28 08:16:31;;;;;;;2.97;1.00;;;15.80;73.40;;;;;;5033498;28;20428;-66
2021/09/28 08:18:56;;;;;;;2.80;0.90;;;15.80;73.50;;;;;;5033604;28;20041;-66
2021/09/28 08:21:22;;;;;;;2.85;1.10;;;15.80;73.30;;;;;;5035913;28;20037;-65
2021/09/28 08:23:48;;;;;;;4.50;1.00;;;15.90;72.80;;;;;;5030463;28;20460;-66
2021/09/28 08:29:11;;;;;;;3.15;1.20;;;16.00;72.30;;;;;;5039631;28;20044;-66
2021/09/28 08:31:38;;;;;;;;;;;16.00;71.70;;;;;;5054093;28;20041;-66
2021/09/28 08:34:05;;;;;;;2.47;0.80;;;16.10;71.40;;;;;;5051349;28;19916;-66
2021/09/28 08:36:32;;;;;;;2.38;1.10;;;16.00;72.10;;;;;;5055189;28;20028;-66
2021/09/28 08:38:58;;;;;;;1.67;1.02;;;16.00;72.00;;;;;;5049202;28;20560;-66
2021/09/28 08:41:24;;;;;;;2.50;1.10;;;16.10;72.30;;;;;;5051968;28;20495;-67
2021/09/28 08:43:50;;;;;;;3.08;1.40;;;16.10;72.20;;;;;;5051071;28;20029;-66
2021/09/28 08:46:17;;;;;;;6.85;1.35;;;16.00;71.90;;;;;;5053016;28;20071;-66
2021/09/28 08:48:44;;;;;;;4.10;1.35;;;16.10;72.10;;;;;;5068754;28;20137;-66
2021/09/28 08:51:10;;;;;;;2.83;1.50;;;16.10;71.80;;;;;;5054281;28;20032;-66
2021/09/28 08:53:36;;;;;;;3.83;1.23;;;16.10;72.10;;;;;;5054325;28;20419;-67
2021/09/28 08:56:04;;;;;;;1.63;1.30;;;16.20;72.00;;;;;;5057874;28;20025;-66
2021/09/28 08:58:31;;;;;;;2.28;1.10;;;16.30;72.00;;;;;;5058851;28;20029;-67
2021/09/28 09:01:07;;;;;;;2.38;1.13;;;16.30;72.10;;;;;;5057481;28;20033;-67
2021/09/28 09:03:37;;;;;;;3.75;1.38;;;16.40;71.40;;;;;;5057286;28;20032;-67
2021/09/28 09:06:04;;;;;;;3.78;1.40;;;16.50;72.10;;;;;;5057664;28;20098;-67
2021/09/28 09:08:35;;;;;;;2.63;1.27;;;16.60;71.10;;;;;;5058098;28;20026;-67
2021/09/28 09:11:09;;;;;;;6.60;1.30;;;16.70;71.20;;;;;;5053877;28;20041;-66
2021/09/28 09:13:56;;;;;;;1.85;1.10;;;16.80;70.80;;;;;;5056867;28;20123;-67
2021/09/28 09:16:34;;;;;;;3.95;1.40;;;16.90;70.30;;;;;;5059166;28;20548;-67
2021/09/28 09:19:11;;;;;;;2.75;1.40;;;17.10;70.10;;;;;;5034498;28;20037;-67
2021/09/28 09:21:49;;;;;;;1.65;1.15;;;17.10;69.70;;;;;;5039316;28;20033;-66
2021/09/28 09:24:42;;;;;;;2.55;1.30;;;17.20;69.70;;;;;;5036321;28;20084;-67
2021/09/28 09:27:13;;;;;;;3.47;1.40;;;17.20;68.50;;;;;;5043397;28;20029;-67
2021/09/28 09:29:40;;;;;;;2.83;1.27;;;17.30;69.40;;;;;;5055593;28;20086;-66
2021/09/28 09:32:06;;;;;;;2.83;1.20;;;17.40;69.20;;;;;;5055484;28;20041;-67
2021/09/28 09:34:32;;;;;;;5.32;1.33;;;17.40;68.70;;;;;;5055068;28;20033;-67
2021/09/28 09:37:05;;;;;;;3.28;1.27;;;17.40;68.40;;;;;;5058518;28;20032;-67
2021/09/28 09:40:03;;;;;;;5.68;1.55;;;17.40;68.30;;;;;;5054958;28;20112;-67
2021/09/28 09:42:29;;;;;;;1.85;1.05;;;17.40;67.80;;;;;;5045055;28;20415;-67
2021/09/28 09:44:54;;;;;;;7.00;1.60;;;17.40;68.30;;;;;;5056050;28;20037;-67
2021/09/28 09:47:33;;;;;;;1.30;1.17;;;17.40;68.10;;;;;;5055165;28;20040;-67
2021/09/28 09:50:18;;;;;;;3.47;1.40;;;17.50;68.30;;;;;;5054548;28;20109;-67
2021/09/28 09:53:05;;;;;;;;;;;17.50;67.30;;;;;;5056590;28;20068;-67
2021/09/28 09:55:33;;;;;;;1.15;0.93;;;17.50;68.00;;;;;;5057088;28;19913;-67
2021/09/28 09:58:00;;;;;;;5.40;1.60;;;17.50;68.00;;;;;;5056069;28;20503;-67
2021/09/28 10:00:26;;;;;;;3.47;1.30;;;17.50;67.80;;;;;;5056836;28;20036;-67
2021/09/28 10:02:52;;;;;;;2.88;1.35;;;17.50;67.80;;;;;;5055130;28;20454;-67
2021/09/28 10:05:18;;;;;;;2.08;1.35;;;17.50;67.90;;;;;;5056636;28;20567;-66
2021/09/28 10:07:47;;;;;;;5.05;1.58;;;17.60;67.90;;;;;;5057896;28;20515;-67
2021/09/28 10:10:20;;;;;;;4.35;1.48;;;17.60;67.50;;;;;;5053028;28;20078;-66
2021/09/28 10:12:46;;;;;;;2.83;1.50;;;17.60;66.80;;;;;;5050689;28;20041;-67
2021/09/28 10:15:15;;;;;;;2.67;1.30;;;17.60;67.40;;;;;;5056969;28;20040;-67
2021/09/28 10:17:45;;;;;;;5.28;1.73;;;17.70;67.40;;;;;;5057070;28;20029;-67
2021/09/28 10:20:24;;;;;;;3.50;1.50;;;17.70;66.90;;;;;;5055928;28;20127;-67
2021/09/28 10:22:57;;;;;;;5.55;1.35;;;17.80;66.80;;;;;;5035773;28;20049;-67
2021/09/28 10:25:34;;;;;;;3.15;1.60;;;17.80;67.10;;;;;;5035978;28;20041;-67
2021/09/28 10:28:05;;;;;;;3.25;1.52;;;17.90;67.30;;;;;;5038690;28;20461;-67
2021/09/28 10:30:34;;;;;;;4.70;1.60;;;18.00;67.10;;;;;;5034276;28;20040;-66
2021/09/28 10:33:04;;;;;;;3.33;1.55;;;18.00;67.30;;;;;;5033781;28;20043;-67
2021/09/28 10:35:31;;;;;;;3.50;1.80;;;18.10;66.80;;;;;;5037052;28;20522;-67
2021/09/28 10:38:01;;;;;;;3.00;1.50;;;18.10;66.10;;;;;;5034970;28;20037;-67
2021/09/28 10:40:26;;;;;;;4.72;1.50;;;18.20;65.70;;;;;;5031646;28;20029;-67
2021/09/28 10:42:59;;;;;;;4.60;1.67;;;18.20;66.00;;;;;;5035234;28;20515;-67
2021/09/28 10:45:33;;;;;;;2.60;1.40;;;18.20;65.60;;;;;;5035884;28;20056;-67
2021/09/28 10:48:06;;;;;;;3.20;1.15;;;18.20;65.70;;;;;;5034748;28;20512;-67
2021/09/28 10:50:35;;;;;;;2.25;1.38;;;18.20;65.80;;;;;;5034454;28;20670;-67
2021/09/28 10:53:03;;;;;;;2.70;1.52;;;18.30;66.20;;;;;;5035915;28;20036;-67
2021/09/28 10:55:39;;;;;;;3.05;1.30;;;18.30;65.50;;;;;;5037326;28;20514;-67
2021/09/28 11:00:39;;;;;;;3.30;1.40;;;18.30;65.00;;;;;;5034975;28;20033;-66
2021/09/28 11:03:05;;;;;;;2.72;1.60;;;18.30;65.00;;;;;;5035507;28;20551;-67
2021/09/28 11:05:38;;;;;;;2.13;1.25;;;18.30;64.50;;;;;;5036797;28;20109;-67
2021/09/28 11:08:06;;;;;;;2.17;1.15;;;18.30;64.30;;;;;;5032997;28;20088;-67
2021/09/28 11:10:33;;;;;;;3.72;1.30;;;18.30;64.80;;;;;;5028911;28;20046;-67
2021/09/28 11:13:05;;;;;;;1.35;1.20;;;18.30;65.30;;;;;;5031999;28;20053;-64
2021/09/28 11:15:32;;;;;;;2.63;1.23;;;18.40;64.90;;;;;;5034211;28;20049;-67
2021/09/28 11:18:15;;;;;;;2.75;1.25;;;18.40;65.10;;;;;;5033108;28;20036;-67
2021/09/28 11:20:41;;;;;;;2.65;1.35;;;18.50;64.10;;;;;;5035819;28;20064;-67
2021/09/28 11:23:10;;;;;;;2.72;1.20;;;18.50;64.60;;;;;;5034373;28;20264;-67
2021/09/28 11:25:37;;;;;;;2.13;1.50;;;18.60;65.00;;;;;;5036223;28;20507;-67
2021/09/28 11:28:03;;;;;;;1.88;1.30;;;18.60;65.70;;;;;;5033070;28;20056;-66
2021/09/28 11:30:33;;;;;;;3.85;1.13;;;18.70;64.30;;;;;;5033030;28;20107;-67
2021/09/28 11:33:00;;;;;;;4.35;1.60;;;18.80;64.30;;;;;;5033072;28;20046;-68
2021/09/28 11:35:26;;;;;;;7.50;2.03;;;18.80;64.20;;;;;;5035571;28;20037;-67
2021/09/28 11:37:59;;;;;;;3.08;1.48;;;18.90;63.80;;;;;;5035236;28;20060;-67
2021/09/28 11:40:38;;;;;;;3.42;1.20;;;18.90;63.10;;;;;;5034258;28;20033;-67
2021/09/28 11:43:19;;;;;;;3.60;1.70;;;19.00;63.60;;;;;;5033173;28;20037;-67
2021/09/28 11:45:46;;;;;;;4.70;1.55;;;19.10;63.20;;;;;;5032756;28;20025;-67
2021/09/28 11:48:11;;;;;;;2.85;1.60;;;19.10;63.60;;;;;;5034764;28;20090;-67
2021/09/28 11:50:38;;;;;;;3.25;1.42;;;19.20;63.70;;;;;;5017809;28;20447;-67
2021/09/28 11:53:07;;;;;;;2.38;1.30;;;19.30;63.60;;;;;;5034026;28;20390;-67
2021/09/28 11:55:33;;;;;;;4.07;1.58;;;19.40;63.30;;;;;;5032854;28;20407;-67
2021/09/28 11:58:00;;;;;;;3.47;1.48;;;19.50;63.10;;;;;;5036906;28;20076;-67
2021/09/28 12:00:26;;;;;;;2.47;1.40;;;19.50;62.40;;;;;;5037074;28;20263;-67
2021/09/28 12:03:10;;;;;;;3.03;1.70;;;19.60;62.30;;;;;;5033621;28;20099;-67
2021/09/28 12:08:22;;;;;;;3.25;1.80;;;19.70;60.60;;;;;;5036817;28;20036;-67
2021/09/28 12:10:48;;;;;;;2.60;1.58;;;19.70;59.40;;;;;;5037341;28;20036;-66
2021/09/28 12:13:18;;;;;;;4.10;1.77;;;19.70;60.30;;;;;;5054472;28;20420;-67
2021/09/28 12:16:15;;;;;;;2.38;1.58;;;19.70;60.30;;;;;;5054907;28;20128;-67
2021/09/28 12:18:41;;;;;;;3.72;1.45;;;19.70;61.00;;;;;;5024449;28;20452;-67
2021/09/28 12:21:21;;;;;;;2.25;1.58;;;19.70;61.20;;;;;;5036791;28;20080;-67
2021/09/28 12:24:07;;;;;;;2.28;1.25;;;19.70;60.60;;;;;;5035148;28;20033;-67
2021/09/28 12:26:35;;;;;;;2.38;1.17;;;19.70;61.20;;;;;;5035402;28;20578;-67
2021/09/28 12:29:27;;;;;;;6.20;1.50;;;19.70;61.20;;;;;;5036287;28;20037;-67
2021/09/28 12:31:53;;;;;;;1.83;1.23;;;19.70;60.50;;;;;;5034403;28;20041;-67
2021/09/28 12:34:19;;;;;;;3.10;1.30;;;19.80;61.20;;;;;;5036669;28;20033;-67
2021/09/28 12:36:45;;;;;;;3.30;1.50;;;19.80;61.20;;;;;;5033697;28;20124;-67
2021/09/28 12:39:15;;;;;;;2.42;1.30;;;19.80;60.80;;;;;;5036387;28;20064;-67
2021/09/28 12:41:56;;;;;;;1.80;1.30;;;19.80;60.60;;;;;;5035303;28;20116;-67
2021/09/28 12:44:23;;;;;;;3.08;1.20;;;19.80;59.80;;;;;;5035015;28;20033;-67
2021/09/28 12:46:48;;;;;;;1.85;1.20;;;19.90;60.50;;;;;;5039925;28;20029;-67
2021/09/28 12:49:33;;;;;;;1.55;1.20;;;19.90;60.10;;;;;;5055386;28;20044;-67
2021/09/28 12:52:00;;;;;;;2.42;1.13;;;19.90;59.20;;;;;;5055792;28;20137;-67
2021/09/28 12:54:27;;;;;;;2.60;1.20;;;19.90;59.40;;;;;;5053291;28;20261;-67
2021/09/28 12:56:54;;;;;;;2.15;1.10;;;19.80;59.40;;;;;;5056907;28;20029;-67